sensor_id;sensor_type;location;lat;lon;timestamp;temperature;humidity
68011;DHT22;54794;48.348;7.878;2023-09-19T00:00:43;21.40;62.50
68011;DHT22;54794;48.348;7.878;2023-09-19T00:04:12;21.40;63.00
68011;DHT22;54794;48.348;7.878;2023-09-19T00:07:06;21.40;63.00
68011;DHT22;54794;48.348;7.878;2023-09-19T00:09:50;21.40;62.50
68011;DHT22;54794;48.348;7.878;2023-09-19T00:15:54;21.30;63.10
68011;DHT22;54794;48.348;7.878;2023-09-19T00:18:51;21.30;63.00
68011;DHT22;54794;48.348;7.878;2023-09-19T00:21:58;21.50;63.00
68011;DHT22;54794;48.348;7.878;2023-09-19T00:24:37;21.30;62.80
68011;DHT22;54794;48.348;7.878;2023-09-19T00:30:54;21.30;62.70
68011;DHT22;54794;48.348;7.878;2023-09-19T00:33:45;21.30;63.20
68011;DHT22;54794;48.348;7.878;2023-09-19T00:36:51;21.30;63.40
68011;DHT22;54794;48.348;7.878;2023-09-19T00:39:34;21.40;63.40
68011;DHT22;54794;48.348;7.878;2023-09-19T00:42:23;21.30;63.20
68011;DHT22;54794;48.348;7.878;2023-09-19T00:45:23;21.30;62.90
68011;DHT22;54794;48.348;7.878;2023-09-19T00:48:05;21.40;63.80
68011;DHT22;54794;48.348;7.878;2023-09-19T00:51:02;21.30;63.70
68011;DHT22;54794;48.348;7.878;2023-09-19T00:53:51;21.30;63.60
68011;DHT22;54794;48.348;7.878;2023-09-19T00:57:10;21.30;63.30
68011;DHT22;54794;48.348;7.878;2023-09-19T01:00:02;21.30;63.60
68011;DHT22;54794;48.348;7.878;2023-09-19T01:02:57;21.40;63.40
68011;DHT22;54794;48.348;7.878;2023-09-19T01:05:34;21.30;63.40
68011;DHT22;54794;48.348;7.878;2023-09-19T01:08:11;21.30;63.50
68011;DHT22;54794;48.348;7.878;2023-09-19T01:11:21;21.30;63.40
68011;DHT22;54794;48.348;7.878;2023-09-19T01:14:54;21.30;63.90
68011;DHT22;54794;48.348;7.878;2023-09-19T01:30:21;21.30;64.20
68011;DHT22;54794;48.348;7.878;2023-09-19T01:33:10;21.20;64.00
68011;DHT22;54794;48.348;7.878;2023-09-19T01:36:03;21.20;63.70
68011;DHT22;54794;48.348;7.878;2023-09-19T01:38:58;21.20;63.60
68011;DHT22;54794;48.348;7.878;2023-09-19T01:42:04;21.20;64.10
68011;DHT22;54794;48.348;7.878;2023-09-19T01:48:41;21.20;64.40
68011;DHT22;54794;48.348;7.878;2023-09-19T01:51:48;21.20;64.30
68011;DHT22;54794;48.348;7.878;2023-09-19T01:54:48;21.20;64.10
68011;DHT22;54794;48.348;7.878;2023-09-19T02:01:24;21.20;64.40
68011;DHT22;54794;48.348;7.878;2023-09-19T02:04:10;21.20;63.90
68011;DHT22;54794;48.348;7.878;2023-09-19T02:06:46;21.20;64.20
68011;DHT22;54794;48.348;7.878;2023-09-19T02:09:39;21.20;63.90
68011;DHT22;54794;48.348;7.878;2023-09-19T02:15:44;21.20;64.30
68011;DHT22;54794;48.348;7.878;2023-09-19T02:18:41;21.30;64.20
68011;DHT22;54794;48.348;7.878;2023-09-19T02:21:18;21.20;64.40
68011;DHT22;54794;48.348;7.878;2023-09-19T02:24:20;21.20;64.10
68011;DHT22;54794;48.348;7.878;2023-09-19T02:27:39;21.20;64.50
68011;DHT22;54794;48.348;7.878;2023-09-19T02:30:47;21.30;64.20
68011;DHT22;54794;48.348;7.878;2023-09-19T02:33:47;21.20;64.60
68011;DHT22;54794;48.348;7.878;2023-09-19T02:36:20;21.20;64.30
68011;DHT22;54794;48.348;7.878;2023-09-19T02:39:16;21.20;64.30
68011;DHT22;54794;48.348;7.878;2023-09-19T02:41:58;21.20;64.50
68011;DHT22;54794;48.348;7.878;2023-09-19T02:44:44;21.20;64.40
68011;DHT22;54794;48.348;7.878;2023-09-19T02:47:35;21.20;64.50
68011;DHT22;54794;48.348;7.878;2023-09-19T02:50:53;21.20;64.60
68011;DHT22;54794;48.348;7.878;2023-09-19T02:53:41;21.20;64.40
68011;DHT22;54794;48.348;7.878;2023-09-19T02:56:37;21.20;64.40
68011;DHT22;54794;48.348;7.878;2023-09-19T02:59:22;21.20;64.40
68011;DHT22;54794;48.348;7.878;2023-09-19T03:01:59;21.20;64.40
68011;DHT22;54794;48.348;7.878;2023-09-19T03:04:56;21.20;64.30
68011;DHT22;54794;48.348;7.878;2023-09-19T03:07:33;21.10;64.20
68011;DHT22;54794;48.348;7.878;2023-09-19T03:10:48;21.10;64.40
68011;DHT22;54794;48.348;7.878;2023-09-19T03:13:39;21.10;64.60
68011;DHT22;54794;48.348;7.878;2023-09-19T03:16:22;21.00;64.30
68011;DHT22;54794;48.348;7.878;2023-09-19T03:19:07;21.10;64.40
68011;DHT22;54794;48.348;7.878;2023-09-19T03:21:53;21.10;64.20
68011;DHT22;54794;48.348;7.878;2023-09-19T03:24:36;21.10;64.40
68011;DHT22;54794;48.348;7.878;2023-09-19T03:27:11;21.00;64.40
68011;DHT22;54794;48.348;7.878;2023-09-19T03:30:08;21.00;64.30
68011;DHT22;54794;48.348;7.878;2023-09-19T03:33:14;21.00;64.60
68011;DHT22;54794;48.348;7.878;2023-09-19T03:36:39;21.10;65.10
68011;DHT22;54794;48.348;7.878;2023-09-19T03:39:53;21.00;64.90
68011;DHT22;54794;48.348;7.878;2023-09-19T03:42:56;20.70;64.80
68011;DHT22;54794;48.348;7.878;2023-09-19T03:49:35;20.90;64.60
68011;DHT22;54794;48.348;7.878;2023-09-19T03:52:56;20.90;64.50
68011;DHT22;54794;48.348;7.878;2023-09-19T03:55:51;20.90;64.80
68011;DHT22;54794;48.348;7.878;2023-09-19T03:58:47;20.90;64.60
68011;DHT22;54794;48.348;7.878;2023-09-19T04:01:55;20.90;64.90
68011;DHT22;54794;48.348;7.878;2023-09-19T04:04:48;20.90;64.90
68011;DHT22;54794;48.348;7.878;2023-09-19T04:08:19;20.80;65.50
68011;DHT22;54794;48.348;7.878;2023-09-19T04:11:23;20.80;65.30
68011;DHT22;54794;48.348;7.878;2023-09-19T04:14:37;20.90;65.50
68011;DHT22;54794;48.348;7.878;2023-09-19T04:17:35;20.80;65.00
68011;DHT22;54794;48.348;7.878;2023-09-19T04:20:28;20.80;65.20
68011;DHT22;54794;48.348;7.878;2023-09-19T04:23:46;20.80;65.20
68011;DHT22;54794;48.348;7.878;2023-09-19T04:26:45;20.80;65.30
68011;DHT22;54794;48.348;7.878;2023-09-19T04:29:36;20.80;65.20
68011;DHT22;54794;48.348;7.878;2023-09-19T04:32:15;20.80;65.20
68011;DHT22;54794;48.348;7.878;2023-09-19T04:35:06;20.80;65.20
68011;DHT22;54794;48.348;7.878;2023-09-19T04:41:34;20.80;65.70
68011;DHT22;54794;48.348;7.878;2023-09-19T04:44:47;20.80;65.50
68011;DHT22;54794;48.348;7.878;2023-09-19T04:48:01;20.90;65.70
68011;DHT22;54794;48.348;7.878;2023-09-19T04:50:53;20.90;65.60
68011;DHT22;54794;48.348;7.878;2023-09-19T04:53:55;20.80;65.90
68011;DHT22;54794;48.348;7.878;2023-09-19T04:56:48;20.90;66.00
68011;DHT22;54794;48.348;7.878;2023-09-19T05:03:27;20.90;66.00
68011;DHT22;54794;48.348;7.878;2023-09-19T05:06:49;20.90;65.60
68011;DHT22;54794;48.348;7.878;2023-09-19T05:09:48;20.90;66.00
68011;DHT22;54794;48.348;7.878;2023-09-19T05:16:46;20.90;65.60
68011;DHT22;54794;48.348;7.878;2023-09-19T05:20:02;20.90;65.40
68011;DHT22;54794;48.348;7.878;2023-09-19T05:23:37;20.90;65.70
68011;DHT22;54794;48.348;7.878;2023-09-19T05:26:26;20.90;65.90
68011;DHT22;54794;48.348;7.878;2023-09-19T05:32:33;20.90;65.80
68011;DHT22;54794;48.348;7.878;2023-09-19T05:47:19;20.90;65.90
68011;DHT22;54794;48.348;7.878;2023-09-19T05:50:42;20.80;65.60
68011;DHT22;54794;48.348;7.878;2023-09-19T05:53:52;20.90;65.90
68011;DHT22;54794;48.348;7.878;2023-09-19T05:57:13;20.90;66.10
68011;DHT22;54794;48.348;7.878;2023-09-19T06:00:35;20.90;66.00
68011;DHT22;54794;48.348;7.878;2023-09-19T06:06:53;21.00;66.00
68011;DHT22;54794;48.348;7.878;2023-09-19T06:10:30;20.90;66.20
68011;DHT22;54794;48.348;7.878;2023-09-19T06:17:55;20.90;65.90
68011;DHT22;54794;48.348;7.878;2023-09-19T06:21:48;21.00;66.50
68011;DHT22;54794;48.348;7.878;2023-09-19T06:40:03;20.80;66.20
68011;DHT22;54794;48.348;7.878;2023-09-19T06:47:03;21.00;66.00
68011;DHT22;54794;48.348;7.878;2023-09-19T06:54:15;21.00;66.60
68011;DHT22;54794;48.348;7.878;2023-09-19T07:06:24;21.20;66.20
68011;DHT22;54794;48.348;7.878;2023-09-19T07:09:58;21.20;66.20
68011;DHT22;54794;48.348;7.878;2023-09-19T07:13:57;21.20;66.60
68011;DHT22;54794;48.348;7.878;2023-09-19T07:17:36;21.20;67.00
68011;DHT22;54794;48.348;7.878;2023-09-19T07:20:59;21.30;67.00
68011;DHT22;54794;48.348;7.878;2023-09-19T07:24:12;21.40;67.20
68011;DHT22;54794;48.348;7.878;2023-09-19T07:27:33;21.40;67.40
68011;DHT22;54794;48.348;7.878;2023-09-19T07:34:58;21.60;67.30
68011;DHT22;54794;48.348;7.878;2023-09-19T07:38:28;21.80;66.90
68011;DHT22;54794;48.348;7.878;2023-09-19T07:45:12;22.10;67.60
68011;DHT22;54794;48.348;7.878;2023-09-19T07:48:07;22.20;67.20
68011;DHT22;54794;48.348;7.878;2023-09-19T07:57:41;22.50;65.90
68011;DHT22;54794;48.348;7.878;2023-09-19T08:01:22;22.60;65.90
68011;DHT22;54794;48.348;7.878;2023-09-19T08:04:34;22.70;65.50
68011;DHT22;54794;48.348;7.878;2023-09-19T08:07:32;22.70;65.00
68011;DHT22;54794;48.348;7.878;2023-09-19T08:11:04;22.80;64.90
68011;DHT22;54794;48.348;7.878;2023-09-19T08:17:25;22.90;64.40
68011;DHT22;54794;48.348;7.878;2023-09-19T08:20:52;22.90;64.50
68011;DHT22;54794;48.348;7.878;2023-09-19T08:24:25;23.00;65.10
68011;DHT22;54794;48.348;7.878;2023-09-19T08:27:41;23.10;65.20
68011;DHT22;54794;48.348;7.878;2023-09-19T08:31:16;23.20;65.30
68011;DHT22;54794;48.348;7.878;2023-09-19T08:34:48;23.30;65.80
68011;DHT22;54794;48.348;7.878;2023-09-19T08:41:20;23.60;64.10
68011;DHT22;54794;48.348;7.878;2023-09-19T08:44:36;23.70;64.40
68011;DHT22;54794;48.348;7.878;2023-09-19T08:51:51;23.80;62.90
68011;DHT22;54794;48.348;7.878;2023-09-19T08:55:40;23.90;62.70
68011;DHT22;54794;48.348;7.878;2023-09-19T09:02:06;23.90;62.80
68011;DHT22;54794;48.348;7.878;2023-09-19T09:20:24;24.00;61.90
68011;DHT22;54794;48.348;7.878;2023-09-19T09:28:32;23.90;61.00
68011;DHT22;54794;48.348;7.878;2023-09-19T09:31:51;23.80;60.80
68011;DHT22;54794;48.348;7.878;2023-09-19T09:41:53;23.50;60.20
68011;DHT22;54794;48.348;7.878;2023-09-19T09:45:45;23.50;60.30
68011;DHT22;54794;48.348;7.878;2023-09-19T09:49:35;23.40;60.10
68011;DHT22;54794;48.348;7.878;2023-09-19T09:57:08;23.30;60.30
68011;DHT22;54794;48.348;7.878;2023-09-19T10:00:12;23.40;60.20
68011;DHT22;54794;48.348;7.878;2023-09-19T10:14:54;23.90;60.70
68011;DHT22;54794;48.348;7.878;2023-09-19T10:18:53;24.00;60.40
68011;DHT22;54794;48.348;7.878;2023-09-19T10:29:27;24.40;60.00
68011;DHT22;54794;48.348;7.878;2023-09-19T10:35:20;24.60;59.20
68011;DHT22;54794;48.348;7.878;2023-09-19T10:38:29;24.60;59.30
68011;DHT22;54794;48.348;7.878;2023-09-19T10:41:32;24.80;58.70
68011;DHT22;54794;48.348;7.878;2023-09-19T10:44:32;24.80;58.20
68011;DHT22;54794;48.348;7.878;2023-09-19T10:47:23;25.00;58.70
68011;DHT22;54794;48.348;7.878;2023-09-19T10:50:22;25.10;58.40
68011;DHT22;54794;48.348;7.878;2023-09-19T10:53:32;25.20;56.60
68011;DHT22;54794;48.348;7.878;2023-09-19T10:56:54;25.10;56.80
68011;DHT22;54794;48.348;7.878;2023-09-19T11:00:06;25.20;57.00
68011;DHT22;54794;48.348;7.878;2023-09-19T11:06:28;25.30;56.20
68011;DHT22;54794;48.348;7.878;2023-09-19T11:13:29;25.20;55.30
68011;DHT22;54794;48.348;7.878;2023-09-19T11:17:16;25.20;55.20
68011;DHT22;54794;48.348;7.878;2023-09-19T11:31:44;24.90;55.10
68011;DHT22;54794;48.348;7.878;2023-09-19T11:35:02;25.00;54.30
68011;DHT22;54794;48.348;7.878;2023-09-19T11:41:46;25.10;56.70
68011;DHT22;54794;48.348;7.878;2023-09-19T11:45:02;25.20;54.70
68011;DHT22;54794;48.348;7.878;2023-09-19T11:48:23;25.30;55.60
68011;DHT22;54794;48.348;7.878;2023-09-19T11:51:29;25.40;54.50
68011;DHT22;54794;48.348;7.878;2023-09-19T11:58:27;25.70;53.20
68011;DHT22;54794;48.348;7.878;2023-09-19T12:01:23;25.90;54.40
68011;DHT22;54794;48.348;7.878;2023-09-19T12:04:53;26.00;54.00
68011;DHT22;54794;48.348;7.878;2023-09-19T12:07:43;26.10;53.70
68011;DHT22;54794;48.348;7.878;2023-09-19T12:14:31;26.30;50.50
68011;DHT22;54794;48.348;7.878;2023-09-19T12:20:52;26.50;53.30
68011;DHT22;54794;48.348;7.878;2023-09-19T12:27:15;26.90;52.80
68011;DHT22;54794;48.348;7.878;2023-09-19T12:31:06;27.00;52.40
68011;DHT22;54794;48.348;7.878;2023-09-19T12:38:06;27.30;52.60
68011;DHT22;54794;48.348;7.878;2023-09-19T12:41:33;27.50;52.30
68011;DHT22;54794;48.348;7.878;2023-09-19T12:48:33;27.70;51.70
68011;DHT22;54794;48.348;7.878;2023-09-19T12:51:45;27.90;51.50
68011;DHT22;54794;48.348;7.878;2023-09-19T12:54:57;28.00;51.10
68011;DHT22;54794;48.348;7.878;2023-09-19T13:02:05;28.40;50.60
68011;DHT22;54794;48.348;7.878;2023-09-19T13:10:03;28.60;47.20
68011;DHT22;54794;48.348;7.878;2023-09-19T13:17:07;28.70;49.50
68011;DHT22;54794;48.348;7.878;2023-09-19T13:20:19;28.70;48.20
68011;DHT22;54794;48.348;7.878;2023-09-19T13:24:24;28.70;47.90
68011;DHT22;54794;48.348;7.878;2023-09-19T13:27:08;28.70;49.00
68011;DHT22;54794;48.348;7.878;2023-09-19T13:30:24;28.70;49.30
68011;DHT22;54794;48.348;7.878;2023-09-19T13:33:50;28.80;48.00
68011;DHT22;54794;48.348;7.878;2023-09-19T13:36:45;28.80;48.50
68011;DHT22;54794;48.348;7.878;2023-09-19T13:43:09;28.90;49.10
68011;DHT22;54794;48.348;7.878;2023-09-19T13:46:29;29.00;48.90
68011;DHT22;54794;48.348;7.878;2023-09-19T13:49:42;29.10;48.40
68011;DHT22;54794;48.348;7.878;2023-09-19T13:52:49;29.20;48.50
68011;DHT22;54794;48.348;7.878;2023-09-19T13:56:20;29.20;47.00
68011;DHT22;54794;48.348;7.878;2023-09-19T13:59:21;29.10;46.30
68011;DHT22;54794;48.348;7.878;2023-09-19T14:02:17;29.00;46.50
68011;DHT22;54794;48.348;7.878;2023-09-19T14:05:13;29.00;47.40
68011;DHT22;54794;48.348;7.878;2023-09-19T14:08:09;29.00;45.00
68011;DHT22;54794;48.348;7.878;2023-09-19T14:11:19;29.00;46.30
68011;DHT22;54794;48.348;7.878;2023-09-19T14:14:16;29.00;45.60
68011;DHT22;54794;48.348;7.878;2023-09-19T14:17:32;29.00;46.90
68011;DHT22;54794;48.348;7.878;2023-09-19T14:20:29;28.90;46.00
68011;DHT22;54794;48.348;7.878;2023-09-19T14:26:32;28.70;45.90
68011;DHT22;54794;48.348;7.878;2023-09-19T14:29:54;28.60;46.30
68011;DHT22;54794;48.348;7.878;2023-09-19T14:33:20;28.50;46.00
68011;DHT22;54794;48.348;7.878;2023-09-19T14:36:19;28.60;46.10
68011;DHT22;54794;48.348;7.878;2023-09-19T14:39:25;28.60;45.30
68011;DHT22;54794;48.348;7.878;2023-09-19T14:42:13;28.60;46.30
68011;DHT22;54794;48.348;7.878;2023-09-19T14:44:54;28.60;45.90
68011;DHT22;54794;48.348;7.878;2023-09-19T14:47:40;28.60;46.50
68011;DHT22;54794;48.348;7.878;2023-09-19T14:50:47;28.60;46.00
68011;DHT22;54794;48.348;7.878;2023-09-19T14:54:04;28.60;46.60
68011;DHT22;54794;48.348;7.878;2023-09-19T14:57:06;28.70;46.70
68011;DHT22;54794;48.348;7.878;2023-09-19T15:03:15;29.00;46.20
68011;DHT22;54794;48.348;7.878;2023-09-19T15:07:18;29.00;46.20
68011;DHT22;54794;48.348;7.878;2023-09-19T15:10:19;29.00;45.00
68011;DHT22;54794;48.348;7.878;2023-09-19T15:16:57;29.00;44.70
68011;DHT22;54794;48.348;7.878;2023-09-19T15:19:54;29.00;45.50
68011;DHT22;54794;48.348;7.878;2023-09-19T15:22:38;28.90;44.30
68011;DHT22;54794;48.348;7.878;2023-09-19T15:29:27;28.70;43.90
68011;DHT22;54794;48.348;7.878;2023-09-19T15:33:01;28.60;43.80
68011;DHT22;54794;48.348;7.878;2023-09-19T15:36:01;28.40;42.50
68011;DHT22;54794;48.348;7.878;2023-09-19T15:39:23;28.40;43.70
68011;DHT22;54794;48.348;7.878;2023-09-19T15:42:43;28.30;44.20
68011;DHT22;54794;48.348;7.878;2023-09-19T15:45:42;28.20;44.10
68011;DHT22;54794;48.348;7.878;2023-09-19T15:48:40;28.20;44.00
68011;DHT22;54794;48.348;7.878;2023-09-19T16:00:50;27.80;44.20
68011;DHT22;54794;48.348;7.878;2023-09-19T16:04:47;27.70;43.90
68011;DHT22;54794;48.348;7.878;2023-09-19T16:07:40;27.60;43.70
68011;DHT22;54794;48.348;7.878;2023-09-19T16:15:08;27.50;44.70
68011;DHT22;54794;48.348;7.878;2023-09-19T16:18:23;27.50;45.10
68011;DHT22;54794;48.348;7.878;2023-09-19T16:21:46;27.50;45.30
68011;DHT22;54794;48.348;7.878;2023-09-19T16:28:19;27.60;44.80
68011;DHT22;54794;48.348;7.878;2023-09-19T16:31:19;27.50;44.00
68011;DHT22;54794;48.348;7.878;2023-09-19T16:34:49;27.50;44.50
68011;DHT22;54794;48.348;7.878;2023-09-19T16:38:14;27.40;43.60
68011;DHT22;54794;48.348;7.878;2023-09-19T16:41:29;27.30;44.10
68011;DHT22;54794;48.348;7.878;2023-09-19T16:45:33;27.20;43.50
68011;DHT22;54794;48.348;7.878;2023-09-19T16:48:38;27.10;44.30
68011;DHT22;54794;48.348;7.878;2023-09-19T16:52:35;27.00;43.80
68011;DHT22;54794;48.348;7.878;2023-09-19T16:55:49;26.90;44.30
68011;DHT22;54794;48.348;7.878;2023-09-19T17:03:16;26.70;44.30
68011;DHT22;54794;48.348;7.878;2023-09-19T17:06:39;26.60;44.00
68011;DHT22;54794;48.348;7.878;2023-09-19T17:09:41;26.50;44.00
68011;DHT22;54794;48.348;7.878;2023-09-19T17:12:41;26.40;44.10
68011;DHT22;54794;48.348;7.878;2023-09-19T17:16:06;26.30;44.40
68011;DHT22;54794;48.348;7.878;2023-09-19T17:19:49;26.20;43.90
68011;DHT22;54794;48.348;7.878;2023-09-19T17:29:28;26.10;44.70
68011;DHT22;54794;48.348;7.878;2023-09-19T17:32:41;26.00;44.60
68011;DHT22;54794;48.348;7.878;2023-09-19T17:36:10;25.90;44.90
68011;DHT22;54794;48.348;7.878;2023-09-19T17:39:09;26.00;44.80
68011;DHT22;54794;48.348;7.878;2023-09-19T17:42:26;25.80;45.30
68011;DHT22;54794;48.348;7.878;2023-09-19T17:45:23;25.70;45.40
68011;DHT22;54794;48.348;7.878;2023-09-19T17:49:25;25.70;45.60
68011;DHT22;54794;48.348;7.878;2023-09-19T17:53:06;25.50;45.40
68011;DHT22;54794;48.348;7.878;2023-09-19T17:56:36;25.50;45.80
68011;DHT22;54794;48.348;7.878;2023-09-19T17:59:54;25.30;46.00
68011;DHT22;54794;48.348;7.878;2023-09-19T18:06:58;25.20;46.10
68011;DHT22;54794;48.348;7.878;2023-09-19T18:09:59;25.00;46.00
68011;DHT22;54794;48.348;7.878;2023-09-19T18:13:06;24.90;46.40
68011;DHT22;54794;48.348;7.878;2023-09-19T18:16:29;24.80;46.50
68011;DHT22;54794;48.348;7.878;2023-09-19T18:20:01;24.70;46.60
68011;DHT22;54794;48.348;7.878;2023-09-19T18:23:22;24.60;46.60
68011;DHT22;54794;48.348;7.878;2023-09-19T18:26:35;24.30;46.70
68011;DHT22;54794;48.348;7.878;2023-09-19T18:30:05;24.30;46.90
68011;DHT22;54794;48.348;7.878;2023-09-19T18:33:00;24.20;46.90
68011;DHT22;54794;48.348;7.878;2023-09-19T18:35:47;24.20;47.20
68011;DHT22;54794;48.348;7.878;2023-09-19T18:38:49;24.00;47.30
68011;DHT22;54794;48.348;7.878;2023-09-19T18:41:28;24.00;47.40
68011;DHT22;54794;48.348;7.878;2023-09-19T18:44:29;23.90;47.40
68011;DHT22;54794;48.348;7.878;2023-09-19T18:47:36;23.80;47.40
68011;DHT22;54794;48.348;7.878;2023-09-19T18:50:31;23.70;47.50
68011;DHT22;54794;48.348;7.878;2023-09-19T18:56:51;23.40;47.90
68011;DHT22;54794;48.348;7.878;2023-09-19T18:59:45;23.40;48.00
68011;DHT22;54794;48.348;7.878;2023-09-19T19:02:40;23.30;47.80
68011;DHT22;54794;48.348;7.878;2023-09-19T19:09:18;23.10;48.20
68011;DHT22;54794;48.348;7.878;2023-09-19T19:12:12;23.10;48.20
68011;DHT22;54794;48.348;7.878;2023-09-19T19:18:40;22.90;48.10
68011;DHT22;54794;48.348;7.878;2023-09-19T19:21:36;22.80;48.60
68011;DHT22;54794;48.348;7.878;2023-09-19T19:24:49;22.90;48.80
68011;DHT22;54794;48.348;7.878;2023-09-19T19:27:53;22.70;48.50
68011;DHT22;54794;48.348;7.878;2023-09-19T19:30:55;22.60;48.80
68011;DHT22;54794;48.348;7.878;2023-09-19T19:34:20;22.50;48.80
68011;DHT22;54794;48.348;7.878;2023-09-19T19:37:16;22.50;48.70
68011;DHT22;54794;48.348;7.878;2023-09-19T19:40:31;22.40;48.90
68011;DHT22;54794;48.348;7.878;2023-09-19T19:43:14;22.30;49.10
68011;DHT22;54794;48.348;7.878;2023-09-19T19:46:15;22.20;49.20
68011;DHT22;54794;48.348;7.878;2023-09-19T19:49:01;22.20;49.30
68011;DHT22;54794;48.348;7.878;2023-09-19T19:51:57;22.20;49.60
68011;DHT22;54794;48.348;7.878;2023-09-19T19:54:46;22.10;49.40
68011;DHT22;54794;48.348;7.878;2023-09-19T19:57:23;22.00;49.10
68011;DHT22;54794;48.348;7.878;2023-09-19T20:04:14;21.90;49.50
68011;DHT22;54794;48.348;7.878;2023-09-19T20:07:02;21.90;49.70
68011;DHT22;54794;48.348;7.878;2023-09-19T20:09:52;21.80;49.30
68011;DHT22;54794;48.348;7.878;2023-09-19T20:13:09;21.80;49.60
68011;DHT22;54794;48.348;7.878;2023-09-19T20:16:07;21.60;49.60
68011;DHT22;54794;48.348;7.878;2023-09-19T20:18:59;21.60;49.60
68011;DHT22;54794;48.348;7.878;2023-09-19T20:22:02;21.50;49.30
68011;DHT22;54794;48.348;7.878;2023-09-19T20:25:02;21.50;49.80
68011;DHT22;54794;48.348;7.878;2023-09-19T20:27:57;21.40;50.00
68011;DHT22;54794;48.348;7.878;2023-09-19T20:31:44;21.40;50.30
68011;DHT22;54794;48.348;7.878;2023-09-19T20:35:24;21.30;50.20
68011;DHT22;54794;48.348;7.878;2023-09-19T20:42:31;21.20;50.50
68011;DHT22;54794;48.348;7.878;2023-09-19T20:45:28;21.10;50.50
68011;DHT22;54794;48.348;7.878;2023-09-19T20:48:00;21.00;50.30
68011;DHT22;54794;48.348;7.878;2023-09-19T20:50:59;21.00;50.60
68011;DHT22;54794;48.348;7.878;2023-09-19T20:53:53;20.90;50.60
68011;DHT22;54794;48.348;7.878;2023-09-19T20:56:57;20.90;50.90
68011;DHT22;54794;48.348;7.878;2023-09-19T20:59:41;20.80;50.90
68011;DHT22;54794;48.348;7.878;2023-09-19T21:02:47;20.70;50.60
68011;DHT22;54794;48.348;7.878;2023-09-19T21:05:22;20.70;51.20
68011;DHT22;54794;48.348;7.878;2023-09-19T21:07:49;20.60;50.70
68011;DHT22;54794;48.348;7.878;2023-09-19T21:14:23;20.60;51.20
68011;DHT22;54794;48.348;7.878;2023-09-19T21:17:16;20.60;51.30
68011;DHT22;54794;48.348;7.878;2023-09-19T21:23:12;20.40;51.40
68011;DHT22;54794;48.348;7.878;2023-09-19T21:26:18;20.40;51.70
68011;DHT22;54794;48.348;7.878;2023-09-19T21:29:05;20.30;51.60
68011;DHT22;54794;48.348;7.878;2023-09-19T21:32:07;20.30;51.40
68011;DHT22;54794;48.348;7.878;2023-09-19T21:35:15;20.30;51.50
68011;DHT22;54794;48.348;7.878;2023-09-19T21:38:16;20.20;51.90
68011;DHT22;54794;48.348;7.878;2023-09-19T21:41:21;20.20;52.00
68011;DHT22;54794;48.348;7.878;2023-09-19T21:44:47;20.20;51.70
68011;DHT22;54794;48.348;7.878;2023-09-19T21:47:22;20.10;52.00
68011;DHT22;54794;48.348;7.878;2023-09-19T21:50:25;20.10;52.00
68011;DHT22;54794;48.348;7.878;2023-09-19T21:53:43;20.10;51.80
68011;DHT22;54794;48.348;7.878;2023-09-19T21:56:28;20.10;52.30
68011;DHT22;54794;48.348;7.878;2023-09-19T21:59:21;20.10;52.20
68011;DHT22;54794;48.348;7.878;2023-09-19T22:02:17;20.10;52.10
68011;DHT22;54794;48.348;7.878;2023-09-19T22:05:22;20.00;51.90
68011;DHT22;54794;48.348;7.878;2023-09-19T22:07:56;20.00;52.10
68011;DHT22;54794;48.348;7.878;2023-09-19T22:14:06;19.90;52.00
68011;DHT22;54794;48.348;7.878;2023-09-19T22:17:05;19.90;52.20
68011;DHT22;54794;48.348;7.878;2023-09-19T22:19:56;19.90;52.60
68011;DHT22;54794;48.348;7.878;2023-09-19T22:26:16;19.80;52.30
68011;DHT22;54794;48.348;7.878;2023-09-19T22:29:00;19.80;52.30
68011;DHT22;54794;48.348;7.878;2023-09-19T22:32:10;19.80;52.50
68011;DHT22;54794;48.348;7.878;2023-09-19T22:35:13;19.70;52.60
68011;DHT22;54794;48.348;7.878;2023-09-19T22:37:52;19.70;53.00
68011;DHT22;54794;48.348;7.878;2023-09-19T22:40:50;19.70;52.70
68011;DHT22;54794;48.348;7.878;2023-09-19T22:50:19;19.50;52.60
68011;DHT22;54794;48.348;7.878;2023-09-19T22:53:23;19.50;53.30
68011;DHT22;54794;48.348;7.878;2023-09-19T22:56:21;19.50;53.20
68011;DHT22;54794;48.348;7.878;2023-09-19T22:59:09;19.40;53.50
68011;DHT22;54794;48.348;7.878;2023-09-19T23:02:06;19.30;53.50
68011;DHT22;54794;48.348;7.878;2023-09-19T23:05:10;19.30;53.20
68011;DHT22;54794;48.348;7.878;2023-09-19T23:08:25;19.30;53.40
68011;DHT22;54794;48.348;7.878;2023-09-19T23:11:19;19.20;53.20
68011;DHT22;54794;48.348;7.878;2023-09-19T23:14:05;19.20;53.40
68011;DHT22;54794;48.348;7.878;2023-09-19T23:16:45;19.20;53.50
68011;DHT22;54794;48.348;7.878;2023-09-19T23:20:04;19.20;53.80
68011;DHT22;54794;48.348;7.878;2023-09-19T23:23:03;19.20;54.00
68011;DHT22;54794;48.348;7.878;2023-09-19T23:26:17;19.20;53.70
68011;DHT22;54794;48.348;7.878;2023-09-19T23:28:57;19.20;54.00
68011;DHT22;54794;48.348;7.878;2023-09-19T23:32:09;19.10;54.00
68011;DHT22;54794;48.348;7.878;2023-09-19T23:38:41;19.10;54.00
68011;DHT22;54794;48.348;7.878;2023-09-19T23:41:36;19.10;54.80
68011;DHT22;54794;48.348;7.878;2023-09-19T23:44:31;19.10;53.90
68011;DHT22;54794;48.348;7.878;2023-09-19T23:53:40;19.10;54.30
68011;DHT22;54794;48.348;7.878;2023-09-19T23:57:08;19.10;54.40
